Aeroporto :
LOGIN :

Iscrizione | Disclaimer

   EN    FR    IT 

 










Sommario :    VFR   VFR Marginale   IFR   IFR Intensivo   IFR Molto Intensivo
Visibilità : 
Base nubi : 
>= 8 km
>= 3000ft
5 / 8 km
1000 / 3000 ft
1500m / 5 km
500 / 1000 ft
800 / 1500m
200 / 500 ft
< 800m
< 200 ft
Simboli :   Temporali  Nebbia  Neve Forte  Precipitazioni Forti  Vento > 20 kt
SIGMETs :   Varie  Temporali  Ghiacco  Turbolenza  Onda orograficha  Ceneri Vulcaniche







- Altitudine del aeroporto : 410 ft
- Codice IATA : AVB


LIPA - Aviano AB Pordenone

ULTIMO METAR :
  • 181455Z 20006KT 9999 FEW050 BKN090 26/17 Q1011 RMK BKN VIS MIN 9999 WIND THR05 /////KT WIND THR23 /////KT A2988 BLU

METARs OBSOLETI :
  • 181355Z 19007KT 9999 FEW050 BKN090 26/17 Q1012 RMK BKN VIS MIN 9999 WIND THR05 /////KT WIND THR23 /////KT A2989 BLU
  • 181255Z 21005KT 9999 FEW040TCU BKN090 25/19 Q1012 RMK BKN VIS MIN 9999 WIND THR05 /////KT WIND THR23 /////KT A2989 BLU

TAF TAF LIPA
Valido dal 18 a 15 ore il 19 a 00 ore UTC


181400Z 1815/1824 07005KT 9999 FEW040 BKN080
TEMPO 1815/1818 5000 TSRA FEW020CB BKN050
Nessun NOTAM noto per questo aeroporto.
2 SIGMETs conosciuti per la FIR Milano (LIMM) :
 
Temporali affogati
LIMM SIGMET 6 VALID 181557/181757 LIIP
LIMM MILANO FIR EMBD TS OBS WI N4331 E01400 - N4449 E01249 - N4410 E01105 - N4339 E01212 - N4331 E01400 TOP FL320 MOV E NC=
Temporali affogati
LIMM SIGMET 5 VALID 181357/181557 LIIP
LIMM MILANO FIR EMBD TS OBS WI N4630 E01340 - N4638 E01246 - N4414 E01048 - N4339 E01212 - N4542 E01346 - N4630 E01340 TOP FL350 MOV E NC=



MetMap, La meteo Aeronautica in un colpo d'occhio ! - Copyright ORBIFLY Dicembre 2007 - Disclaimer

ORBIFLY MET'MAP TEAM :

Programmazione e sviluppo : Alexandra Zaïnal
Concezione e sviluppo : Baudouin d'Aumeries
Co-Programmazione e sviluppo : Marc-Olivier Méhu
Supporto tecnico e logistico : Manuel Goepfert
Aiuto per la traduzione : Arnaldo La Scala

Contatto : metmap@orbifly.com




FONTI E CREDITI :

   NOAA